Weather at First Flight Airport

Public forecast

Using degrees Fahrenheit for public forecast. Weather courtesy of forecast.io.

Current aviation weather report (METAR) for First Flight Airport

Retrieved 2021/01/24 18:35 UTC (33 seconds ago):

KFFA 241835Z AUTO 30004KT 10SM CLR 04/M07 A3025 RMK AO2 T00351067

Closest aviation forecast (TAF) to First Flight Airport

Closest forecast is Elizabeth City Regional Airport & Coast Guard Air Station, 28.4 nm (52.6 km) WNW. Retrieved 2021/01/24 18:22 UTC (14 minutes ago):

TAF KECG 241720Z 2418/2518 33007KT P6SM SKC FM242100 28005KT P6SM FEW100 FM250100 00000KT P6SM BKN090 FM250600 VRB04KT P6SM OVC050 FM251500 20004KT P6SM OVC020